Time;durP1;ratioP1;P1;durP2;ratioP2;P2;SDS_P1;SDS_P2;PMS_P1;PMS_P2;Temp;Humidity;BMP_temperature;BMP_pressure;BME280_temperature;BME280_humidity;BME280_pressure;Samples;Min_cycle;Max_cycle;Signal;HPM_P1;HPM_P2
2021/08/07 03:01:26;;;;;;;;;;;16.30;99.90;;;;;;5;36052302;39059539;31
2021/08/07 03:04:40;;;;;;;;;;;16.30;99.90;;;;;;5;36014832;39767148;-87
2021/08/07 03:07:50;;;;;;;;;;;16.20;99.90;;;;;;5;36015237;39020564;-87
2021/08/07 03:11:03;;;;;;;;;;;16.20;99.90;;;;;;5;36013316;39017381;-87
2021/08/07 03:14:15;;;;;;;;;;;16.20;99.90;;;;;;5;36014035;39014706;-87
2021/08/07 03:17:28;;;;;;;;;;;16.10;99.90;;;;;;5;36013226;39015640;-87
2021/08/07 03:20:38;;;;;;;;;;;16.10;99.90;;;;;;5;36014913;39015904;-87
2021/08/07 03:23:50;;;;;;;;;;;16.00;99.90;;;;;;5;36012778;39015960;-87
2021/08/07 03:27:03;;;;;;;;;;;16.00;99.90;;;;;;5;36014837;39015288;-87
2021/08/07 03:30:16;;;;;;;;;;;15.90;99.90;;;;;;5;36013729;39015797;-87
2021/08/07 03:33:25;;;;;;;;;;;15.90;99.90;;;;;;5;36014893;39015869;-87
2021/08/07 03:36:39;;;;;;;;;;;15.80;99.90;;;;;;5;36014586;39764905;-88
2021/08/07 03:39:52;;;;;;;;;;;15.80;99.90;;;;;;5;36013448;39015420;-87
2021/08/07 03:43:05;;;;;;;;;;;15.80;99.90;;;;;;5;36015336;39016388;-87
2021/08/07 03:46:14;;;;;;;;;;;15.70;99.90;;;;;;5;36014002;39015222;-87
2021/08/07 03:49:27;;;;;;;;;;;15.70;99.90;;;;;;5;36013840;39015927;-87
2021/08/07 03:53:20;;;;;;;;;;;15.70;99.90;;;;;;5;36012826;39017120;-87
2021/08/07 03:56:32;;;;;;;;;;;15.70;99.90;;;;;;5;36013616;39015758;-87
2021/08/07 03:59:42;;;;;;;;;;;15.70;99.90;;;;;;5;36014625;39015907;-87
2021/08/07 04:02:55;;;;;;;;;;;15.70;99.90;;;;;;5;36020422;39018441;-87
2021/08/07 04:06:08;;;;;;;;;;;15.60;99.90;;;;;;5;36014402;39020143;-87
2021/08/07 04:09:22;;;;;;;;;;;15.70;99.90;;;;;;5;36014089;39766017;-87
2021/08/07 04:12:31;;;;;;;;;;;15.60;99.90;;;;;;5;36013792;39016249;-87
2021/08/07 04:15:44;;;;;;;;;;;15.60;99.90;;;;;;5;36013227;39015592;-87
2021/08/07 04:18:56;;;;;;;;;;;15.50;99.90;;;;;;5;36014037;39015239;-87
2021/08/07 04:22:09;;;;;;;;;;;15.50;99.90;;;;;;5;36014336;39015345;-87
2021/08/07 04:25:19;;;;;;;;;;;15.40;99.90;;;;;;5;36014128;39015728;-87
2021/08/07 04:28:31;;;;;;;;;;;15.50;99.90;;;;;;5;36014347;39015753;-86
2021/08/07 04:31:44;;;;;;;;;;;15.50;99.90;;;;;;5;36013823;39016304;-87
2021/08/07 04:34:57;;;;;;;;;;;15.50;99.90;;;;;;5;36013347;39015201;-87
2021/08/07 04:38:06;;;;;;;;;;;15.50;99.90;;;;;;5;36013229;39015655;-87
2021/08/07 04:41:20;;;;;;;;;;;15.50;99.90;;;;;;5;36012786;39765525;-87
2021/08/07 04:44:33;;;;;;;;;;;15.50;99.90;;;;;;5;36014441;39015520;-87
2021/08/07 04:47:52;;;;;;;;;;;15.60;99.90;;;;;;5;36013543;39015436;-86
2021/08/07 04:51:02;;;;;;;;;;;15.60;99.90;;;;;;5;36013412;39015948;-87
2021/08/07 04:54:14;;;;;;;;;;;15.70;99.90;;;;;;5;36012972;39015229;-87
2021/08/07 04:57:27;;;;;;;;;;;15.70;99.90;;;;;;5;36013291;39015837;-87
2021/08/07 05:00:40;;;;;;;;;;;15.80;99.90;;;;;;5;36013901;39015297;-86
2021/08/07 05:03:50;;;;;;;;;;;15.80;99.90;;;;;;5;36013582;39016235;-86
2021/08/07 05:07:02;;;;;;;;;;;15.80;99.90;;;;;;5;36013548;39015904;-87
2021/08/07 05:10:15;;;;;;;;;;;15.90;99.90;;;;;;5;36014944;39017187;-87
2021/08/07 05:13:29;;;;;;;;;;;15.90;99.90;;;;;;5;36014841;39765773;-85
2021/08/07 05:16:39;;;;;;;;;;;15.80;99.90;;;;;;5;36014069;39016409;-86
2021/08/07 05:19:52;;;;;;;;;;;15.90;99.90;;;;;;5;36013900;39016138;-88
2021/08/07 05:23:04;;;;;;;;;;;16.00;99.90;;;;;;5;36013830;39015807;-87
2021/08/07 05:26:17;;;;;;;;;;;16.20;99.90;;;;;;5;36014511;39016251;-88
2021/08/07 05:29:27;;;;;;;;;;;16.50;99.90;;;;;;5;36013732;39015722;-88
2021/08/07 05:32:39;;;;;;;;;;;16.80;99.90;;;;;;5;36013219;39015295;-89
2021/08/07 05:35:52;;;;;;;;;;;17.00;99.90;;;;;;5;36014739;39015667;-91
2021/08/07 05:39:05;;;;;;;;;;;17.10;99.90;;;;;;5;36014908;39015950;-90
2021/08/07 05:42:14;;;;;;;;;;;17.30;99.90;;;;;;5;36013764;39014851;-93
2021/08/07 05:45:28;;;;;;;;;;;17.40;99.90;;;;;;5;36013642;39766187;-90
2021/08/07 05:48:41;;;;;;;;;;;17.40;99.90;;;;;;5;36013432;39014732;-93
2021/08/07 05:51:54;;;;;;;;;;;17.40;99.90;;;;;;5;36014796;39015959;-92
2021/08/07 05:55:04;;;;;;;;;;;17.20;99.90;;;;;;5;36014605;39016276;-94
2021/08/07 05:58:17;;;;;;;;;;;17.20;99.90;;;;;;5;36013256;39015358;-93
2021/08/07 06:01:30;;;;;;;;;;;17.20;99.90;;;;;;5;36012390;39014996;-91
2021/08/07 06:04:42;;;;;;;;;;;17.30;99.90;;;;;;5;36015804;39016875;-91
2021/08/07 06:07:52;;;;;;;;;;;17.40;99.90;;;;;;5;36014914;39018506;-91
2021/08/07 06:11:05;;;;;;;;;;;17.50;99.90;;;;;;5;36012879;39018501;-92
2021/08/07 06:14:17;;;;;;;;;;;17.70;99.90;;;;;;5;36013972;39016923;-91
2021/08/07 06:17:31;;;;;;;;;;;17.80;99.90;;;;;;5;36014514;39764982;-89
2021/08/07 06:20:41;;;;;;;;;;;17.90;99.90;;;;;;5;36014271;39016848;-90
2021/08/07 06:23:55;;;;;;;;;;;18.00;99.90;;;;;;5;36014866;39016913;-91
2021/08/07 06:27:07;;;;;;;;;;;18.10;99.90;;;;;;5;36014564;39016312;-90
2021/08/07 06:30:21;;;;;;;;;;;18.30;99.90;;;;;;5;36014680;39016362;-91
2021/08/07 06:37:21;;;;;;;;;;;18.50;99.90;;;;;;5;36013565;39016029;-90
2021/08/07 06:40:35;;;;;;;;;;;18.80;99.90;;;;;;5;36014852;39017779;-90
2021/08/07 06:43:47;;;;;;;;;;;18.90;99.90;;;;;;5;36014764;39016146;-90
2021/08/07 06:46:57;;;;;;;;;;;19.10;99.90;;;;;;5;36014668;39015548;-90
2021/08/07 06:50:11;;;;;;;;;;;19.30;99.90;;;;;;5;36013109;39765920;-90
2021/08/07 06:53:24;;;;;;;;;;;19.60;99.90;;;;;;5;36013650;39015407;-92
2021/08/07 06:56:37;;;;;;;;;;;19.90;99.90;;;;;;5;36013730;39014462;-92
2021/08/07 06:59:47;;;;;;;;;;;20.30;99.80;;;;;;5;36013925;39015084;-92
2021/08/07 07:03:00;;;;;;;;;;;20.70;97.80;;;;;;5;36013572;39017374;-92
2021/08/07 07:06:12;;;;;;;;;;;21.00;96.60;;;;;;5;36014143;39014515;-92
2021/08/07 07:09:25;;;;;;;;;;;21.00;95.70;;;;;;5;36015546;39015112;-91
2021/08/07 07:12:35;;;;;;;;;;;20.80;95.80;;;;;;5;36013678;39015743;-93
2021/08/07 07:15:47;;;;;;;;;;;20.50;96.10;;;;;;5;36013541;39016934;-92
2021/08/07 07:19:00;;;;;;;;;;;20.40;97.20;;;;;;5;36014108;39015275;-93
2021/08/07 07:22:14;;;;;;;;;;;20.30;97.70;;;;;;5;36014310;39765357;-92
2021/08/07 07:25:25;;;;;;;;;;;20.40;97.60;;;;;;5;36013894;39015610;-92
2021/08/07 07:28:38;;;;;;;;;;;20.50;97.30;;;;;;5;36013488;39015661;-91
2021/08/07 07:31:51;;;;;;;;;;;20.50;95.90;;;;;;5;36012931;39015279;-92
2021/08/07 07:35:04;;;;;;;;;;;20.50;96.10;;;;;;5;36013513;39015520;-92
2021/08/07 07:38:14;;;;;;;;;;;20.50;96.00;;;;;;5;36013652;39015883;-92
2021/08/07 07:41:26;;;;;;;;;;;20.70;95.30;;;;;;5;36013421;39015658;-92
2021/08/07 07:44:39;;;;;;;;;;;21.10;95.20;;;;;;5;36013334;39015257;-92
2021/08/07 07:47:52;;;;;;;;;;;21.80;94.50;;;;;;5;36013688;39015132;-92
2021/08/07 07:51:02;;;;;;;;;;;22.50;93.10;;;;;;5;36014342;39015637;-92
2021/08/07 07:54:16;;;;;;;;;;;23.20;91.30;;;;;;5;36013453;39765696;-92
2021/08/07 07:57:28;;;;;;;;;;;23.40;89.50;;;;;;5;36014809;39015273;-92
2021/08/07 08:00:41;;;;;;;;;;;23.90;86.30;;;;;;5;36013757;39015872;-92
2021/08/07 08:03:51;;;;;;;;;;;24.20;83.80;;;;;;5;36014143;39015410;-92
2021/08/07 08:07:03;;;;;;;;;;;24.40;83.20;;;;;;5;36013874;39016628;-92
2021/08/07 08:10:16;;;;;;;;;;;24.70;81.70;;;;;;5;36013728;39015947;-91
2021/08/07 08:13:29;;;;;;;;;;;24.70;77.50;;;;;;5;36013029;39016631;-92
2021/08/07 08:16:38;;;;;;;;;;;24.70;78.40;;;;;;5;36014223;39015650;-92
2021/08/07 08:19:51;;;;;;;;;;;24.70;79.50;;;;;;5;36013870;39017145;-92
2021/08/07 08:23:04;;;;;;;;;;;24.90;78.50;;;;;;5;36012972;39016120;-92
2021/08/07 08:26:19;;;;;;;;;;;24.90;75.90;;;;;;5;36013742;39767066;-92
2021/08/07 08:29:29;;;;;;;;;;;25.30;75.60;;;;;;5;36014329;39015120;-92
2021/08/07 08:32:41;;;;;;;;;;;25.90;74.30;;;;;;5;36014457;39016813;-92
2021/08/07 08:35:54;;;;;;;;;;;26.00;73.40;;;;;;5;36014015;39016145;-92
2021/08/07 08:39:07;;;;;;;;;;;25.50;71.30;;;;;;5;36013490;39015789;-92
2021/08/07 08:42:16;;;;;;;;;;;25.10;74.00;;;;;;5;36014524;39015547;-92
2021/08/07 08:45:29;;;;;;;;;;;24.90;74.90;;;;;;5;36013912;39015263;-92
2021/08/07 08:48:42;;;;;;;;;;;24.60;77.00;;;;;;5;36013387;39015722;-91
2021/08/07 08:51:58;;;;;;;;;;;24.40;77.30;;;;;;5;36012991;39015684;-92
2021/08/07 08:55:09;;;;;;;;;;;24.10;77.90;;;;;;5;36014690;39015561;-92
2021/08/07 08:58:23;;;;;;;;;;;24.20;79.60;;;;;;5;36016524;39765605;-92
2021/08/07 09:01:36;;;;;;;;;;;24.50;78.70;;;;;;5;36012985;39016103;-92
2021/08/07 09:04:49;;;;;;;;;;;25.10;76.10;;;;;;5;36013664;39015950;-92
2021/08/07 09:07:59;;;;;;;;;;;25.90;74.80;;;;;;5;36013600;39015427;-93
2021/08/07 09:11:15;;;;;;;;;;;26.30;72.80;;;;;;5;36012867;39015180;-93
2021/08/07 09:14:29;;;;;;;;;;;26.20;70.20;;;;;;5;36013261;39015574;-93
2021/08/07 09:17:42;;;;;;;;;;;25.90;71.70;;;;;;5;36013814;39014811;-93
2021/08/07 09:20:52;;;;;;;;;;;25.80;71.60;;;;;;5;36013909;39015876;-93
2021/08/07 09:24:06;;;;;;;;;;;25.90;73.50;;;;;;5;36013724;39014944;-93
2021/08/07 09:27:28;;;;;;;;;;;26.10;73.40;;;;;;5;36012987;39016158;-92
2021/08/07 09:30:42;;;;;;;;;;;26.40;74.00;;;;;;5;36013096;39765413;-93
2021/08/07 09:34:11;;;;;;;;;;;28.70;72.00;;;;;;5;36014056;39015222;-94
2021/08/07 09:37:23;;;;;;;;;;;32.10;63.90;;;;;;5;36012720;39015200;-94
2021/08/07 09:40:41;;;;;;;;;;;34.40;58.20;;;;;;5;36013178;39016158;-95
2021/08/07 09:43:54;;;;;;;;;;;36.90;53.60;;;;;;5;36012958;39016109;-95
2021/08/07 09:47:08;;;;;;;;;;;39.00;46.30;;;;;;5;36013359;39015070;-94
2021/08/07 09:50:25;;;;;;;;;;;40.90;44.90;;;;;;5;36012852;39015423;-95
2021/08/07 09:53:37;;;;;;;;;;;41.70;42.40;;;;;;5;36014286;39014972;-94
2021/08/07 09:56:55;;;;;;;;;;;41.70;40.60;;;;;;5;36013569;39014919;-94
2021/08/07 10:00:05;;;;;;;;;;;40.60;40.30;;;;;;5;36015371;39015188;-94
2021/08/07 10:03:21;;;;;;;;;;;39.00;42.60;;;;;;5;36013476;39765556;-94
2021/08/07 10:06:35;;;;;;;;;;;38.00;44.60;;;;;;5;36013886;39015777;-94
2021/08/07 10:09:47;;;;;;;;;;;37.50;45.40;;;;;;5;36014193;39014937;-94
2021/08/07 10:12:57;;;;;;;;;;;39.10;43.90;;;;;;5;36013948;39014830;-94
2021/08/07 10:16:10;;;;;;;;;;;41.40;42.00;;;;;;5;36012603;39014762;-94
2021/08/07 10:19:23;;;;;;;;;;;42.30;40.60;;;;;;5;36012670;39015730;-95
2021/08/07 10:22:35;;;;;;;;;;;41.90;40.70;;;;;;5;36012987;39014530;-95
2021/08/07 10:25:46;;;;;;;;;;;41.70;40.70;;;;;;5;36013156;39015234;-93
2021/08/07 10:28:59;;;;;;;;;;;42.30;40.20;;;;;;5;36013347;39015723;-93
2021/08/07 10:32:15;;;;;;;;;;;43.50;38.10;;;;;;5;36012884;39015882;-94
2021/08/07 10:35:30;;;;;;;;;;;42.20;39.20;;;;;;5;36013413;39764335;-93
2021/08/07 10:38:41;;;;;;;;;;;40.10;41.20;;;;;;5;36013158;39015856;-94
2021/08/07 10:41:57;;;;;;;;;;;38.10;43.40;;;;;;5;36013542;39015372;-92
2021/08/07 10:45:10;;;;;;;;;;;35.90;46.00;;;;;;5;36013208;39014700;-93
2021/08/07 10:48:42;;;;;;;;;;;33.00;51.00;;;;;;5;36013546;39014793;-94
2021/08/07 10:51:52;;;;;;;;;;;31.70;52.70;;;;;;5;36014094;39014532;-93
2021/08/07 10:55:04;;;;;;;;;;;30.90;54.40;;;;;;5;36012654;39015036;-93
2021/08/07 10:58:33;;;;;;;;;;;30.70;55.40;;;;;;5;36013499;39014390;-92
2021/08/07 11:01:48;;;;;;;;;;;29.90;57.50;;;;;;5;36013471;39015100;-93
2021/08/07 11:04:58;;;;;;;;;;;28.80;59.70;;;;;;5;36014445;39014508;-93
2021/08/07 11:08:15;;;;;;;;;;;28.30;60.90;;;;;;5;36012846;39765375;-91
2021/08/07 11:11:29;;;;;;;;;;;28.00;62.00;;;;;;5;36014334;39014622;-92
2021/08/07 11:14:46;;;;;;;;;;;27.80;63.10;;;;;;5;36012627;39015466;-92
2021/08/07 11:17:56;;;;;;;;;;;27.10;64.20;;;;;;5;36013430;39015068;-92
2021/08/07 11:21:29;;;;;;;;;;;26.70;65.30;;;;;;5;36012603;39015385;-94
2021/08/07 11:24:47;;;;;;;;;;;26.40;65.80;;;;;;5;36012569;39015437;-94
2021/08/07 11:28:01;;;;;;;;;;;26.20;66.70;;;;;;5;36012539;39015304;-94
2021/08/07 11:31:12;;;;;;;;;;;26.40;67.20;;;;;;5;36014094;39015444;-94
2021/08/07 11:34:25;;;;;;;;;;;27.20;65.40;;;;;;5;36013464;39015408;-94
2021/08/07 11:37:37;;;;;;;;;;;27.30;64.50;;;;;;5;36013877;39015179;-94
2021/08/07 11:40:55;;;;;;;;;;;26.90;65.80;;;;;;5;36012987;39764822;-94
2021/08/07 11:44:06;;;;;;;;;;;26.70;66.40;;;;;;5;36013361;39015243;-94
2021/08/07 11:47:18;;;;;;;;;;;26.30;67.10;;;;;;5;36013758;39015897;-93
2021/08/07 11:50:32;;;;;;;;;;;26.30;68.90;;;;;;5;36013388;39015736;-93
2021/08/07 11:53:47;;;;;;;;;;;26.00;68.40;;;;;;5;36013745;39015339;-93
2021/08/07 11:56:57;;;;;;;;;;;25.60;69.70;;;;;;5;36014079;39016260;-93
2021/08/07 12:00:20;;;;;;;;;;;25.20;72.00;;;;;;5;36013270;39015336;-93
2021/08/07 12:03:49;;;;;;;;;;;25.00;72.60;;;;;;5;36013643;39016835;-93
2021/08/07 12:07:08;;;;;;;;;;;24.90;73.00;;;;;;5;36013626;39015428;-92
2021/08/07 12:10:18;;;;;;;;;;;24.90;73.90;;;;;;5;36014054;39015636;-93
2021/08/07 12:13:36;;;;;;;;;;;25.00;72.40;;;;;;5;36013988;39765154;-93
2021/08/07 12:16:49;;;;;;;;;;;25.20;71.80;;;;;;5;36014157;39015195;-93
2021/08/07 12:20:02;;;;;;;;;;;25.40;72.10;;;;;;5;36013602;39015908;-92
2021/08/07 12:23:12;;;;;;;;;;;25.40;71.70;;;;;;5;36013382;39015815;-92
2021/08/07 12:26:26;;;;;;;;;;;25.60;71.30;;;;;;5;36012640;39015537;-93
2021/08/07 12:29:39;;;;;;;;;;;26.50;68.30;;;;;;5;36013153;39015203;-92
2021/08/07 12:33:11;;;;;;;;;;;27.10;66.00;;;;;;5;36013691;39015382;-93
2021/08/07 12:36:21;;;;;;;;;;;29.10;64.60;;;;;;5;36013474;39015904;-94
2021/08/07 12:39:45;;;;;;;;;;;31.00;56.80;;;;;;5;36012408;39015012;-94
2021/08/07 12:42:58;;;;;;;;;;;31.70;53.20;;;;;;5;36012475;39014883;-95
2021/08/07 12:46:13;;;;;;;;;;;31.10;53.40;;;;;;5;36013258;39765243;-94
2021/08/07 12:49:42;;;;;;;;;;;30.40;53.50;;;;;;5;36013631;39015165;-94
2021/08/07 12:52:56;;;;;;;;;;;30.10;53.90;;;;;;5;36012495;39014872;-94
2021/08/07 12:56:10;;;;;;;;;;;30.00;53.80;;;;;;5;36013810;39015358;-94
2021/08/07 12:59:23;;;;;;;;;;;29.60;54.30;;;;;;5;36013006;39015821;-94
2021/08/07 13:02:32;;;;;;;;;;;29.50;54.30;;;;;;5;36012911;39015940;-95
2021/08/07 13:05:48;;;;;;;;;;;29.40;55.50;;;;;;5;36013022;39015115;-95
2021/08/07 13:09:20;;;;;;;;;;;28.80;54.50;;;;;;5;36013133;39015675;-94
2021/08/07 13:12:41;;;;;;;;;;;28.20;55.00;;;;;;5;36013400;39016019;-94
2021/08/07 13:15:50;;;;;;;;;;;27.10;57.00;;;;;;5;36013899;39015250;-94
2021/08/07 13:19:21;;;;;;;;;;;26.30;59.70;;;;;;5;36013506;39765385;-93
2021/08/07 13:22:34;;;;;;;;;;;25.50;61.80;;;;;;5;36013159;39015804;-93
2021/08/07 13:26:00;;;;;;;;;;;25.00;63.60;;;;;;5;36013346;39015695;-93
2021/08/07 13:29:20;;;;;;;;;;;24.40;67.20;;;;;;5;36013588;39015855;-93
2021/08/07 13:32:33;;;;;;;;;;;24.00;69.80;;;;;;5;36013049;39015301;-93
2021/08/07 13:35:45;;;;;;;;;;;23.60;69.60;;;;;;5;36013509;39014997;-93
2021/08/07 13:38:58;;;;;;;;;;;23.40;71.60;;;;;;5;36012688;39015281;-93
2021/08/07 13:42:12;;;;;;;;;;;23.00;71.10;;;;;;5;36014311;39015190;-92
2021/08/07 13:45:24;;;;;;;;;;;22.70;74.40;;;;;;5;36013531;39015257;-92
2021/08/07 13:48:37;;;;;;;;;;;22.40;76.70;;;;;;5;36013563;39015516;-91
2021/08/07 13:51:51;;;;;;;;;;;22.30;78.70;;;;;;5;36013350;39766829;-90
2021/08/07 13:55:01;;;;;;;;;;;21.90;81.10;;;;;;5;36013457;39015306;-91
2021/08/07 13:58:14;;;;;;;;;;;21.50;83.50;;;;;;5;36013602;39015078;-90
2021/08/07 14:01:26;;;;;;;;;;;21.10;84.90;;;;;;5;36013031;39016423;-85
2021/08/07 14:04:39;;;;;;;;;;;20.70;90.30;;;;;;5;36014651;39015561;-87
2021/08/07 14:07:49;;;;;;;;;;;20.20;91.80;;;;;;5;36013981;39015363;-86
2021/08/07 14:11:03;;;;;;;;;;;19.80;93.30;;;;;;5;36012993;39016052;-87
2021/08/07 14:14:17;;;;;;;;;;;19.60;94.80;;;;;;5;36013852;39015586;-87
2021/08/07 14:17:29;;;;;;;;;;;19.40;95.60;;;;;;5;36013431;39015792;-88
2021/08/07 14:20:39;;;;;;;;;;;19.20;96.80;;;;;;5;36013194;39015283;-87
2021/08/07 14:23:53;;;;;;;;;;;19.10;97.50;;;;;;5;36013645;39765950;-87
2021/08/07 14:27:06;;;;;;;;;;;19.10;98.00;;;;;;5;36013653;39016057;-87
2021/08/07 14:30:18;;;;;;;;;;;19.00;97.80;;;;;;5;36013587;39015852;-87
2021/08/07 14:33:28;;;;;;;;;;;18.90;96.70;;;;;;5;36014605;39015898;-87
2021/08/07 14:36:43;;;;;;;;;;;18.70;96.90;;;;;;5;36014113;39015538;-88
2021/08/07 14:39:55;;;;;;;;;;;18.60;95.80;;;;;;5;36014139;39016242;-88
2021/08/07 14:43:11;;;;;;;;;;;18.50;95.90;;;;;;5;36013549;39015260;-88
2021/08/07 14:46:20;;;;;;;;;;;18.40;96.80;;;;;;5;36014602;39015168;-88
2021/08/07 14:49:33;;;;;;;;;;;18.40;96.60;;;;;;5;36013885;39016176;-87
2021/08/07 14:52:46;;;;;;;;;;;18.50;96.50;;;;;;5;36013153;39016133;-87
2021/08/07 14:56:00;;;;;;;;;;;18.50;96.00;;;;;;5;36014697;39765253;-87
2021/08/07 14:59:09;;;;;;;;;;;18.60;96.20;;;;;;5;36013207;39015885;-87
2021/08/07 15:02:22;;;;;;;;;;;18.60;96.50;;;;;;5;36016650;39016923;-88
2021/08/07 15:05:35;;;;;;;;;;;18.60;96.20;;;;;;5;36014513;39016265;-87
2021/08/07 15:08:48;;;;;;;;;;;18.60;95.70;;;;;;5;36013774;39015556;-87
2021/08/07 15:11:57;;;;;;;;;;;18.50;96.50;;;;;;5;36014280;39015895;-88
2021/08/07 15:15:10;;;;;;;;;;;18.40;97.80;;;;;;5;36013304;39016130;-88
2021/08/07 15:18:23;;;;;;;;;;;18.20;98.80;;;;;;5;36013286;39016584;-88
2021/08/07 15:21:36;;;;;;;;;;;18.10;99.40;;;;;;5;36015155;39015284;-88
2021/08/07 15:24:47;;;;;;;;;;;18.00;99.90;;;;;;5;36013834;39016519;-87
2021/08/07 15:28:02;;;;;;;;;;;18.00;99.90;;;;;;5;36014854;39766021;-88
2021/08/07 15:31:15;;;;;;;;;;;18.00;99.90;;;;;;5;36012954;39015294;-87
2021/08/07 15:34:30;;;;;;;;;;;17.90;99.90;;;;;;5;36013965;39015898;-88
2021/08/07 15:37:39;;;;;;;;;;;17.70;99.90;;;;;;5;36013327;39016909;-88
2021/08/07 15:40:53;;;;;;;;;;;17.50;99.90;;;;;;5;36012924;39015388;-88
2021/08/07 15:44:05;;;;;;;;;;;17.50;99.90;;;;;;5;36013218;39015822;-88
2021/08/07 15:47:18;;;;;;;;;;;17.40;99.90;;;;;;5;36014132;39014980;-88
2021/08/07 15:50:28;;;;;;;;;;;17.40;99.90;;;;;;5;36013301;39016368;-89
2021/08/07 15:53:43;;;;;;;;;;;17.40;99.90;;;;;;5;36014487;39017483;-88
2021/08/07 15:56:58;;;;;;;;;;;17.40;99.90;;;;;;5;36014350;39015208;-88
2021/08/07 16:00:12;;;;;;;;;;;17.50;99.90;;;;;;5;36012990;39766414;-88
2021/08/07 16:03:22;;;;;;;;;;;17.60;99.90;;;;;;5;36014180;39015946;-88
2021/08/07 16:06:34;;;;;;;;;;;17.60;99.90;;;;;;5;36012947;39017853;-89
2021/08/07 16:09:47;;;;;;;;;;;17.70;99.90;;;;;;5;36013909;39015033;-88
2021/08/07 16:13:00;;;;;;;;;;;17.80;99.90;;;;;;5;36014484;39016086;-88
2021/08/07 16:16:09;;;;;;;;;;;17.70;99.90;;;;;;5;36015128;39016957;-88
2021/08/07 16:19:22;;;;;;;;;;;17.60;99.90;;;;;;5;36013873;39016246;-89
2021/08/07 16:22:35;;;;;;;;;;;17.50;99.90;;;;;;5;36012840;39015321;-88
2021/08/07 16:25:48;;;;;;;;;;;17.40;99.90;;;;;;5;36013306;39015552;-88
2021/08/07 16:28:57;;;;;;;;;;;17.40;99.90;;;;;;5;36013179;39015418;-89
2021/08/07 16:32:12;;;;;;;;;;;17.30;99.90;;;;;;5;36013484;39765757;-88
2021/08/07 16:35:24;;;;;;;;;;;17.40;99.90;;;;;;5;36013917;39016127;-88
2021/08/07 16:38:37;;;;;;;;;;;17.30;99.90;;;;;;5;36013495;39015854;-89
2021/08/07 16:41:47;;;;;;;;;;;17.20;99.90;;;;;;5;36016056;39016533;-89
2021/08/07 16:45:00;;;;;;;;;;;17.30;99.90;;;;;;5;36014988;39016559;-88
2021/08/07 16:48:12;;;;;;;;;;;17.30;99.90;;;;;;5;36013656;39016069;-88
2021/08/07 16:51:25;;;;;;;;;;;17.30;99.90;;;;;;5;36014019;39015446;-88
2021/08/07 16:54:35;;;;;;;;;;;17.30;99.90;;;;;;5;36013507;39017969;-88
2021/08/07 16:57:47;;;;;;;;;;;17.30;99.90;;;;;;5;36012848;39015491;-88
2021/08/07 17:01:00;;;;;;;;;;;17.10;99.90;;;;;;5;36013036;39015828;-88
2021/08/07 17:04:14;;;;;;;;;;;17.10;99.90;;;;;;5;36013154;39765380;-88
2021/08/07 17:07:24;;;;;;;;;;;17.10;99.90;;;;;;5;36013987;39016319;-88
2021/08/07 17:10:38;;;;;;;;;;;17.10;99.90;;;;;;5;36012670;39015209;-89
2021/08/07 17:13:51;;;;;;;;;;;17.10;99.90;;;;;;5;36014521;39015552;-88
2021/08/07 17:17:09;;;;;;;;;;;17.10;99.90;;;;;;5;36015891;39014928;-88
2021/08/07 17:20:19;;;;;;;;;;;17.00;99.90;;;;;;5;36014318;39015798;-88
2021/08/07 17:23:32;;;;;;;;;;;17.10;99.90;;;;;;5;36012895;39016296;-89
2021/08/07 17:26:45;;;;;;;;;;;17.00;99.90;;;;;;5;36013589;39016642;-88
2021/08/07 17:29:57;;;;;;;;;;;16.90;99.90;;;;;;5;36013804;39015832;-88
2021/08/07 17:33:07;;;;;;;;;;;16.90;99.90;;;;;;5;36015331;39015559;-88
2021/08/07 17:36:21;;;;;;;;;;;16.70;99.90;;;;;;5;36014829;39765634;-88
2021/08/07 17:39:34;;;;;;;;;;;16.70;99.90;;;;;;5;36013594;39016713;-89
2021/08/07 17:42:47;;;;;;;;;;;16.60;99.90;;;;;;5;36015536;39015607;-88
2021/08/07 17:45:56;;;;;;;;;;;16.60;99.90;;;;;;5;36014892;39016137;-88
2021/08/07 17:49:10;;;;;;;;;;;16.60;99.90;;;;;;5;36013607;39016101;-88
2021/08/07 17:52:23;;;;;;;;;;;16.60;99.90;;;;;;5;36013642;39016644;-76
2021/08/07 17:55:36;;;;;;;;;;;16.40;99.90;;;;;;5;36013135;39017654;-76
2021/08/07 17:58:53;;;;;;;;;;;16.40;99.90;;;;;;5;36015929;39016652;-76
2021/08/07 18:02:06;;;;;;;;;;;16.40;99.90;;;;;;5;36016098;39015518;-76
2021/08/07 18:05:19;;;;;;;;;;;16.40;99.90;;;;;;5;36013693;39016532;-76
2021/08/07 18:08:33;;;;;;;;;;;16.40;99.90;;;;;;5;36014086;39764343;-77
2021/08/07 18:11:42;;;;;;;;;;;16.30;99.90;;;;;;5;36014089;39014358;-76
2021/08/07 18:14:55;;;;;;;;;;;16.30;99.90;;;;;;5;36014925;39016284;-77
2021/08/07 18:18:08;;;;;;;;;;;16.30;99.90;;;;;;5;36014504;39019424;-76
2021/08/07 18:21:20;;;;;;;;;;;16.30;99.90;;;;;;5;36014787;39015175;-77
2021/08/07 18:24:30;;;;;;;;;;;16.20;99.90;;;;;;5;36012708;39015741;-77
2021/08/07 18:27:44;;;;;;;;;;;16.10;99.90;;;;;;5;36013225;39016157;-82
2021/08/07 18:30:56;;;;;;;;;;;16.10;99.90;;;;;;5;36013662;39015285;-82
2021/08/07 18:34:09;;;;;;;;;;;16.00;99.90;;;;;;5;36013501;39016085;-83
2021/08/07 18:41:11;;;;;;;;;;;15.80;99.90;;;;;;5;36014057;39766168;-73
2021/08/07 18:44:26;;;;;;;;;;;15.60;99.90;;;;;;5;36013922;39016372;-74
2021/08/07 18:47:38;;;;;;;;;;;15.40;99.90;;;;;;5;36013452;39016648;-74
2021/08/07 18:50:48;;;;;;;;;;;15.30;99.90;;;;;;5;36015044;39017516;-74
2021/08/07 18:54:01;;;;;;;;;;;15.20;99.90;;;;;;5;36016404;39016912;-73
2021/08/07 18:57:13;;;;;;;;;;;15.20;99.90;;;;;;5;36014960;39015063;-74
2021/08/07 19:00:26;;;;;;;;;;;15.20;99.90;;;;;;5;36014380;39016020;-84
2021/08/07 19:03:36;;;;;;;;;;;15.30;99.90;;;;;;5;36014551;39016497;-83
2021/08/07 19:06:48;;;;;;;;;;;15.30;99.90;;;;;;5;36014519;39016075;-82
2021/08/07 19:10:02;;;;;;;;;;;15.40;99.90;;;;;;5;36014053;39015783;-81
2021/08/07 19:13:16;;;;;;;;;;;15.40;99.90;;;;;;5;36014162;39765959;-82
2021/08/07 19:16:26;;;;;;;;;;;15.50;99.90;;;;;;5;36015064;39015910;-82
2021/08/07 19:19:38;;;;;;;;;;;15.50;99.90;;;;;;5;36013264;39016709;-83
2021/08/07 19:22:51;;;;;;;;;;;15.40;99.90;;;;;;5;36013343;39015370;-83
2021/08/07 19:26:04;;;;;;;;;;;15.40;99.90;;;;;;5;36013979;39015736;-82
2021/08/07 19:29:13;;;;;;;;;;;15.40;99.90;;;;;;5;36013464;39016170;-82
2021/08/07 19:32:26;;;;;;;;;;;15.50;99.90;;;;;;5;36013224;39015227;-83
2021/08/07 19:35:39;;;;;;;;;;;15.40;99.90;;;;;;5;36013294;39016023;-84
2021/08/07 19:38:51;;;;;;;;;;;15.20;99.90;;;;;;5;36014238;39015478;-83
2021/08/07 19:42:01;;;;;;;;;;;15.10;99.90;;;;;;5;36013883;39015755;-84
2021/08/07 19:45:15;;;;;;;;;;;15.10;99.90;;;;;;5;36012993;39765968;-84
2021/08/07 19:48:28;;;;;;;;;;;15.10;99.90;;;;;;5;36013700;39015412;-85
2021/08/07 19:51:41;;;;;;;;;;;15.10;99.90;;;;;;5;36013873;39015270;-84
2021/08/07 19:54:51;;;;;;;;;;;15.00;99.90;;;;;;5;36016169;39015254;-84
2021/08/07 19:58:05;;;;;;;;;;;15.10;99.90;;;;;;5;36013350;39016570;-84
2021/08/07 20:01:18;;;;;;;;;;;15.10;99.90;;;;;;5;36013643;39018091;-84
2021/08/07 20:04:30;;;;;;;;;;;15.00;99.90;;;;;;5;36014322;39016827;-84
2021/08/07 20:07:40;;;;;;;;;;;15.10;99.90;;;;;;5;36014394;39017327;-83
2021/08/07 20:10:53;;;;;;;;;;;15.10;99.90;;;;;;5;36013412;39016756;-83
2021/08/07 20:14:06;;;;;;;;;;;15.20;99.90;;;;;;5;36014865;39017849;-82
2021/08/07 20:17:21;;;;;;;;;;;15.30;99.90;;;;;;5;36013686;39766828;-82
2021/08/07 20:20:30;;;;;;;;;;;15.40;99.90;;;;;;5;36013060;39016296;-84
2021/08/07 20:23:43;;;;;;;;;;;15.40;99.90;;;;;;5;36014555;39015789;-82
2021/08/07 20:26:56;;;;;;;;;;;15.30;99.90;;;;;;5;36012993;39015277;-83
2021/08/07 20:30:12;;;;;;;;;;;15.40;99.90;;;;;;5;36014023;39016369;-81
2021/08/07 20:33:21;;;;;;;;;;;15.40;99.90;;;;;;5;36013279;39017212;-82
2021/08/07 20:36:35;;;;;;;;;;;15.40;99.90;;;;;;5;36014224;39015082;-82
2021/08/07 20:39:48;;;;;;;;;;;15.40;99.90;;;;;;5;36014362;39017611;-83
2021/08/07 20:43:01;;;;;;;;;;;15.40;99.90;;;;;;5;36013283;39016023;-83
2021/08/07 20:46:10;;;;;;;;;;;15.40;99.90;;;;;;5;36015069;39016967;-82
2021/08/07 20:49:24;;;;;;;;;;;15.40;99.90;;;;;;5;36013442;39765836;-82
2021/08/07 20:52:37;;;;;;;;;;;15.40;99.90;;;;;;5;36013565;39017225;-83
2021/08/07 20:55:50;;;;;;;;;;;15.50;99.90;;;;;;5;36013627;39017769;-83
2021/08/07 20:58:59;;;;;;;;;;;15.70;99.90;;;;;;5;36014007;39015140;-82
2021/08/07 21:02:13;;;;;;;;;;;15.70;99.90;;;;;;5;36013893;39016093;-84
2021/08/07 21:05:25;;;;;;;;;;;15.70;99.90;;;;;;5;36012697;39015716;-85